WXM80 ListenWXM80 Stop

You find our weather info also at:

UK Metoffice

WeatherCloud

Weather Underground

Northeastern Weather Network

AWEKAS

Citizen Weather Observer Program (CWOP)

HAMweather, WeatherForYou, PWS Weather


Weather Underground History page Text

Daily Summary for January 20, 2018 Units:  Metric    English   Both
« Previous Day
Next Day »
Daily Weekly Monthly Yearly Custom
  High: Low: Average:
Temperature: 11.7 °C -0.3 °C 6.2 °C
Dew Point: 0 °C -4.6 °C -1.9 °C
Humidity: 73 % 43 % 57 %
Wind Speed: 19.3 km/h 0 km/h 8.5 km/h
Wind Gust: 35.4 km/h - -
Wind:- - SW
Pressure: 1008.7 hPa 1001.6 hPa -
Precipitation: 0 mm    
Historical Graphs
 
 
Tabular Data for January 20, 2018
Time Temperature Dew Point Pressure Wind Wind Speed Wind Gust Humidity Rainfall Rate (Hourly)
00:03 -0.3 °C -4.6 °C 1005.3 hPa SSW 2.4 km/h 3.7 km/h 73 % 0 mm
00:08 -0.3 °C -4.6 °C 1005 hPa SW 5.1 km/h 9.7 km/h 73 % 0 mm
00:13 -0.2 °C -4.5 °C 1005 hPa Calm   5.6 km/h 73 % 0 mm
00:18 -0.2 °C -4.4 °C 1005 hPa SSW 1.9 km/h 5.6 km/h 73 % 0 mm
00:23 -0.1 °C -4.3 °C 1005 hPa SW 3.4 km/h 7.4 km/h 73 % 0 mm
00:28 0 °C -4.3 °C 1005 hPa SW 0.5 km/h 3.2 km/h 73 % 0 mm
00:33 0.1 °C -4.2 °C 1005 hPa SW 2.9 km/h 5.6 km/h 73 % 0 mm
00:38 0.2 °C -4.3 °C 1005 hPa SSW 4.3 km/h 8 km/h 72 % 0 mm
00:43 0.2 °C -4.2 °C 1005 hPa SW 0.5 km/h 5.6 km/h 72 % 0 mm
00:48 0.3 °C -4.2 °C 1004.6 hPa SSW 2.9 km/h 5.6 km/h 72 % 0 mm
00:53 0.3 °C -4.1 °C 1004.6 hPa SSW 4 km/h 5.6 km/h 72 % 0 mm
00:58 0.4 °C -4.2 °C 1004.6 hPa South 3.7 km/h 7.4 km/h 71 % 0 mm
01:03 0.5 °C -4.2 °C 1004.6 hPa SW 4.8 km/h 13 km/h 71 % 0 mm
01:08 0.7 °C -4 °C 1004.3 hPa SW 3.7 km/h 6.4 km/h 71 % 0 mm
01:13 0.7 °C -3.9 °C 1004.6 hPa SW 4.2 km/h 7.4 km/h 71 % 0 mm
01:18 0.9 °C -3.9 °C 1004.6 hPa SSW 8.7 km/h 13 km/h 70 % 0 mm
01:23 1 °C -4.1 °C 1004.6 hPa SW 3.7 km/h 7.4 km/h 69 % 0 mm
01:29 1.1 °C -3.9 °C 1004.6 hPa SSW 4.5 km/h 9.3 km/h 69 % 0 mm
01:34 1.2 °C -4.1 °C 1004.6 hPa SSW 7.1 km/h 9.3 km/h 68 % 0 mm
01:39 1.2 °C -4.1 °C 1004.6 hPa SSW 2.9 km/h 6.4 km/h 68 % 0 mm
01:44 1.3 °C -4 °C 1004.6 hPa SSW 7.1 km/h 11.1 km/h 68 % 0 mm
01:49 1.3 °C -3.9 °C 1004.6 hPa SSW 2.7 km/h 6.4 km/h 68 % 0 mm
01:54 1.3 °C -3.9 °C 1004.3 hPa SW 1.8 km/h 11.1 km/h 68 % 0 mm
01:59 1.4 °C -4.1 °C 1003.9 hPa SW 4.3 km/h 11.1 km/h 67 % 0 mm
02:04 1.4 °C -4.1 °C 1003.9 hPa SW 6.8 km/h 11.1 km/h 67 % 0 mm
02:09 1.4 °C -4 °C 1003.9 hPa SSW 3.9 km/h 7.4 km/h 67 % 0 mm
02:14 1.5 °C -3.9 °C 1003.9 hPa SSW 3.9 km/h 7.4 km/h 67 % 0 mm
02:19 1.6 °C -4.1 °C 1003.9 hPa SSW 6 km/h 9.7 km/h 66 % 0 mm
02:24 1.7 °C -3.9 °C 1003.9 hPa SSW 5.1 km/h 9.3 km/h 66 % 0 mm
02:29 1.8 °C -4.1 °C 1003.9 hPa SSW 7.1 km/h 11.3 km/h 65 % 0 mm
02:34 1.9 °C -4 °C 1004.3 hPa SW 6.6 km/h 9.7 km/h 65 % 0 mm
02:39 1.9 °C -3.9 °C 1004.3 hPa South 6.8 km/h 9.3 km/h 65 % 0 mm
02:44 2.1 °C -3.8 °C 1003.9 hPa WSW 7.1 km/h 12.9 km/h 65 % 0 mm
02:49 2.1 °C -4 °C 1003.9 hPa SW 10.6 km/h 18.5 km/h 64 % 0 mm
02:54 2.1 °C -4 °C 1003.9 hPa SSW 6.9 km/h 16.7 km/h 64 % 0 mm
02:59 2.2 °C -3.9 °C 1003.9 hPa SW 8.5 km/h 11.3 km/h 64 % 0 mm
03:04 2.2 °C -3.9 °C 1003.9 hPa SW 9.3 km/h 14.5 km/h 64 % 0 mm
03:10 2.2 °C -3.9 °C 1003.6 hPa SW 9.5 km/h 18.5 km/h 64 % 0 mm
03:15 2.3 °C -4.1 °C 1003.6 hPa SW 6.4 km/h 14.8 km/h 63 % 0 mm
03:20 2.4 °C -3.9 °C 1003.6 hPa SSW 10.3 km/h 18.5 km/h 63 % 0 mm
03:25 2.4 °C -3.9 °C 1003.6 hPa SW 10.8 km/h 20.4 km/h 63 % 0 mm
03:30 2.5 °C -4.1 °C 1003.3 hPa SW 9.5 km/h 19.3 km/h 62 % 0 mm
03:35 2.6 °C -4 °C 1002.9 hPa SW 8.9 km/h 16.7 km/h 62 % 0 mm
03:40 2.6 °C -3.9 °C 1003.6 hPa SSW 10 km/h 19.3 km/h 62 % 0 mm
03:45 2.7 °C -4.1 °C 1003.6 hPa SW 8 km/h 20.4 km/h 61 % 0 mm
03:50 2.7 °C -4.1 °C 1003.3 hPa WSW 8 km/h 18.5 km/h 61 % 0 mm
03:55 2.8 °C -4 °C 1003.3 hPa SSW 9.3 km/h 14.8 km/h 61 % 0 mm
04:00 2.8 °C -3.9 °C 1003.6 hPa SW 11.4 km/h 16.7 km/h 61 % 0 mm
04:05 2.9 °C -3.8 °C 1003.3 hPa SW 14.6 km/h 20.4 km/h 61 % 0 mm
04:10 3 °C -4 °C 1003.3 hPa South 10.3 km/h 16.7 km/h 60 % 0 mm
04:15 3.1 °C -3.9 °C 1002.9 hPa SSW 12.6 km/h 25.9 km/h 60 % 0 mm
04:20 3.1 °C -3.9 °C 1002.9 hPa WSW 10.5 km/h 14.8 km/h 60 % 0 mm
04:25 3.2 °C -3.8 °C 1003.3 hPa SW 9.7 km/h 22.5 km/h 60 % 0 mm
04:30 3.2 °C -3.8 °C 1003.3 hPa SW 9.7 km/h 19.3 km/h 60 % 0 mm
04:35 3.3 °C -4 °C 1003.3 hPa SW 9.7 km/h 20.9 km/h 59 % 0 mm
04:40 3.3 °C -3.9 °C 1002.9 hPa SW 9.7 km/h 22.5 km/h 59 % 0 mm
04:45 3.4 °C -3.9 °C 1002.9 hPa SW 9.7 km/h 19.3 km/h 59 % 0 mm
04:50 3.4 °C -3.8 °C 1002.9 hPa SSW 5.3 km/h 18.5 km/h 59 % 0 mm
04:55 3.4 °C -3.8 °C 1002.6 hPa SW 11.3 km/h 22.5 km/h 59 % 0 mm
05:01 3.5 °C -3.8 °C 1002.6 hPa South 8.7 km/h 20.4 km/h 59 % 0 mm
05:06 3.6 °C -3.7 °C 1002.6 hPa SW 13.5 km/h 22.2 km/h 59 % 0 mm
05:11 3.6 °C -3.7 °C 1002.6 hPa SW 15.1 km/h 22.2 km/h 59 % 0 mm
05:16 3.7 °C -3.6 °C 1002.6 hPa SW 8.9 km/h 22.2 km/h 59 % 0 mm
05:21 3.7 °C -3.8 °C 1002.6 hPa WSW 10.8 km/h 25.9 km/h 58 % 0 mm
05:26 3.7 °C -3.8 °C 1002.6 hPa SSW 10 km/h 14.8 km/h 58 % 0 mm
05:31 3.8 °C -3.7 °C 1002.3 hPa SW 12.4 km/h 22.2 km/h 58 % 0 mm
05:36 3.8 °C -3.7 °C 1002.6 hPa SSW 11.4 km/h 16.7 km/h 58 % 0 mm
05:41 3.8 °C -3.7 °C 1002.6 hPa SW 12.7 km/h 20.9 km/h 58 % 0 mm
05:46 3.8 °C -3.7 °C 1002.6 hPa SSW 11.6 km/h 18.5 km/h 58 % 0 mm
05:51 3.9 °C -3.6 °C 1002.6 hPa South 15.8 km/h 22.2 km/h 58 % 0 mm
05:56 4 °C -3.6 °C 1002.3 hPa SSW 12.1 km/h 24.1 km/h 58 % 0 mm
06:01 4.1 °C -3.5 °C 1002.6 hPa SSW 15.3 km/h 22.2 km/h 58 % 0 mm
06:06 4.1 °C -3.5 °C 1002.3 hPa SSW 12.4 km/h 18.5 km/h 58 % 0 mm
06:11 4.1 °C -3.5 °C 1002.3 hPa West 12.4 km/h 24.1 km/h 58 % 0 mm
06:16 4.1 °C -3.5 °C 1002.3 hPa SSW 14.5 km/h 24.1 km/h 58 % 0 mm
06:21 4.1 °C -3.5 °C 1002.3 hPa SW 14.6 km/h 18.5 km/h 58 % 0 mm
06:26 4.1 °C -3.5 °C 1001.9 hPa SW 14.3 km/h 20.4 km/h 58 % 0 mm
06:31 4 °C -3.6 °C 1001.9 hPa SW 13.7 km/h 20.4 km/h 58 % 0 mm
06:37 4 °C -3.6 °C 1002.3 hPa SSW 15 km/h 24.1 km/h 58 % 0 mm
06:42 3.9 °C -3.6 °C 1001.9 hPa WSW 15.8 km/h 22.2 km/h 58 % 0 mm
06:47 3.9 °C -3.6 °C 1001.9 hPa SW 13 km/h 19.3 km/h 58 % 0 mm
06:52 3.9 °C -3.4 °C 1001.9 hPa WSW 13.5 km/h 18.5 km/h 59 % 0 mm
06:57 3.9 °C -3.4 °C 1001.9 hPa SSW 9.3 km/h 18.5 km/h 59 % 0 mm
07:02 3.8 °C -3.4 °C 1002.3 hPa SW 11.7 km/h 29.6 km/h 59 % 0 mm
07:07 3.8 °C -3.5 °C 1002.3 hPa SW 10.1 km/h 22.2 km/h 59 % 0 mm
07:12 3.7 °C -3.3 °C 1002.3 hPa SW 10.6 km/h 19.3 km/h 60 % 0 mm
07:17 3.7 °C -3.3 °C 1002.3 hPa SSW 14.3 km/h 25.9 km/h 60 % 0 mm
07:22 3.7 °C -3.4 °C 1002.3 hPa WSW 12.2 km/h 27.8 km/h 60 % 0 mm
07:27 3.7 °C -3.4 °C 1002.3 hPa SW 16.4 km/h 27.8 km/h 60 % 0 mm
07:32 3.7 °C -3.3 °C 1002.3 hPa SSW 15.8 km/h 22.2 km/h 60 % 0 mm
07:37 3.7 °C -3.3 °C 1002.6 hPa SW 10.5 km/h 20.4 km/h 60 % 0 mm
07:42 3.8 °C -3.3 °C 1002.6 hPa WSW 12.7 km/h 16.7 km/h 60 % 0 mm
07:47 3.8 °C -3.2 °C 1002.6 hPa West 13.2 km/h 18.5 km/h 60 % 0 mm
07:52 3.9 °C -3.2 °C 1002.6 hPa South 16.3 km/h 29.6 km/h 60 % 0 mm
07:57 3.9 °C -3.3 °C 1002.6 hPa SW 10.8 km/h 14.8 km/h 59 % 0 mm
08:02 4 °C -3.1 °C 1002.6 hPa WSW 11.4 km/h 18.5 km/h 60 % 0 mm
08:07 4.1 °C -3.2 °C 1002.6 hPa SSW 13 km/h 13 km/h 59 % 0 mm
08:13 4.2 °C -3.2 °C 1002.6 hPa WSW 11.7 km/h 22.2 km/h 59 % 0 mm
08:18 4.3 °C -3.1 °C 1002.6 hPa SSW 10.1 km/h 14.8 km/h 59 % 0 mm
08:23 4.4 °C -2.9 °C 1002.6 hPa West 10 km/h 25.7 km/h 59 % 0 mm
08:28 4.6 °C -3 °C 1002.6 hPa SSW 13.2 km/h 24.1 km/h 58 % 0 mm
08:33 4.7 °C -2.8 °C 1002.6 hPa WSW 18 km/h 27.4 km/h 58 % 0 mm
08:38 4.8 °C -2.7 °C 1002.6 hPa SW 9.8 km/h 24.1 km/h 58 % 0 mm
08:43 5 °C -2.6 °C 1002.9 hPa SW 17.1 km/h 31.5 km/h 58 % 0 mm
08:48 5.2 °C -2.7 °C 1002.6 hPa SW 11.6 km/h 18.5 km/h 57 % 0 mm
08:53 5.3 °C -2.5 °C 1002.9 hPa SSW 15.6 km/h 25.9 km/h 57 % 0 mm
08:58 5.5 °C -2.3 °C 1002.9 hPa WSW 13 km/h 22.2 km/h 57 % 0 mm
09:03 5.7 °C -2.4 °C 1002.9 hPa SSW 15.8 km/h 25.9 km/h 56 % 0 mm
09:08 5.9 °C -2.2 °C 1002.9 hPa SW 13.8 km/h 27.8 km/h 56 % 0 mm
09:13 6.2 °C -1.9 °C 1003.3 hPa WSW 14.8 km/h 22.2 km/h 56 % 0 mm
09:18 6.5 °C -1.9 °C 1003.3 hPa SSW 10.9 km/h 18.5 km/h 55 % 0 mm
09:23 6.9 °C -1.6 °C 1003.3 hPa SW 13.8 km/h 20.4 km/h 55 % 0 mm
09:28 7.3 °C -1.4 °C 1003.3 hPa WSW 12.7 km/h 24.1 km/h 54 % 0 mm
09:33 7.7 °C -1.3 °C 1003.6 hPa SW 12.7 km/h 29.6 km/h 53 % 0 mm
09:38 8 °C -1.3 °C 1003.6 hPa SSW 15.3 km/h 24.1 km/h 52 % 0 mm
09:44 8.2 °C -1.3 °C 1003.6 hPa WSW 4.7 km/h 14.5 km/h 51 % 0 mm
09:49 8.4 °C -1.1 °C 1003.6 hPa SW 11.6 km/h 22.2 km/h 51 % 0 mm
09:54 8.6 °C -1.2 °C 1003.6 hPa West 10.6 km/h 14.8 km/h 50 % 0 mm
09:55 8.7 °C -1.2 °C 1003.6 hPa WSW 10 km/h 18.5 km/h 50 % 0 mm
10:01 8.7 °C -1.4 °C 1003.6 hPa SSW 15.6 km/h 33.3 km/h 49 % 0 mm
10:06 8.8 °C -1.3 °C 1003.6 hPa SW 11.3 km/h 33.8 km/h 49 % 0 mm
10:11 9 °C -1.2 °C 1003.6 hPa SSW 14.8 km/h 27.8 km/h 49 % 0 mm
10:16 9.1 °C -1.1 °C 1003.6 hPa WSW 11.3 km/h 27.4 km/h 49 % 0 mm
10:21 9.3 °C -0.9 °C 1003.6 hPa SW 16.1 km/h 33.8 km/h 49 % 0 mm
10:26 9.4 °C -1.1 °C 1003.6 hPa SW 12.4 km/h 18.5 km/h 48 % 0 mm
10:31 9.6 °C -1.2 °C 1003.6 hPa SW 12.9 km/h 20.9 km/h 47 % 0 mm
10:36 9.7 °C -1.1 °C 1003.3 hPa WSW 11.3 km/h 20.9 km/h 47 % 0 mm
10:41 9.8 °C -0.9 °C 1003.3 hPa SW 12.9 km/h 32.2 km/h 47 % 0 mm
10:46 9.9 °C -0.8 °C 1003.3 hPa SW 12.9 km/h 27.4 km/h 47 % 0 mm
10:51 9.9 °C -1.2 °C 1003.3 hPa WSW 14.5 km/h 29 km/h 46 % 0 mm
10:56 10 °C -0.8 °C 1003.3 hPa SW 16.1 km/h 35.4 km/h 47 % 0 mm
11:01 9.9 °C -1.2 °C 1002.9 hPa WSW 15 km/h 25.9 km/h 46 % 0 mm
11:06 9.9 °C -0.8 °C 1003.3 hPa WSW 11.3 km/h 25.7 km/h 47 % 0 mm
11:11 9.9 °C -0.8 °C 1002.9 hPa WSW 9.7 km/h 25.7 km/h 47 % 0 mm
11:16 9.9 °C -1.2 °C 1002.9 hPa WSW 14.5 km/h 35.4 km/h 46 % 0 mm
11:21 9.8 °C -1 °C 1002.9 hPa WSW 19.3 km/h 32.2 km/h 47 % 0 mm
11:26 9.7 °C -1.1 °C 1002.9 hPa WSW 9.7 km/h 25.7 km/h 47 % 0 mm
11:31 9.7 °C -1.1 °C 1002.6 hPa WSW 12.9 km/h 24.1 km/h 47 % 0 mm
11:36 9.6 °C -1.2 °C 1002.6 hPa WSW 16.1 km/h 29 km/h 47 % 0 mm
11:41 9.6 °C -1.2 °C 1002.3 hPa WSW 11.3 km/h 27.4 km/h 47 % 0 mm
11:46 9.6 °C -1.2 °C 1002.3 hPa SW 11.7 km/h 31.5 km/h 47 % 0 mm
11:51 9.7 °C -0.8 °C 1002.3 hPa WSW 9.7 km/h 22.5 km/h 48 % 0 mm
11:56 9.7 °C -1.1 °C 1001.9 hPa WSW 10.6 km/h 25.9 km/h 47 % 0 mm
12:01 9.8 °C -0.7 °C 1001.9 hPa WSW 6.4 km/h 22.2 km/h 48 % 0 mm
12:06 9.9 °C -0.9 °C 1001.9 hPa WSW 12.9 km/h 32.2 km/h 47 % 0 mm
12:11 10 °C -0.8 °C 1001.9 hPa WSW 14.5 km/h 29 km/h 47 % 0 mm
12:16 10.1 °C -0.8 °C 1001.9 hPa WSW 9.7 km/h 27.4 km/h 47 % 0 mm
12:21 10.2 °C -0.7 °C 1001.9 hPa WSW 9.7 km/h 29 km/h 47 % 0 mm
12:26 10.3 °C -0.6 °C 1001.9 hPa WSW 12.9 km/h 27.4 km/h 47 % 0 mm
12:31 10.4 °C -0.4 °C 1001.9 hPa WNW 12.6 km/h 14.5 km/h 47 % 0 mm
12:36 10.6 °C -0.2 °C 1001.6 hPa WSW 14.5 km/h 29 km/h 47 % 0 mm
12:41 10.8 °C -0.4 °C 1001.6 hPa WSW 9.5 km/h 16.7 km/h 46 % 0 mm
12:46 10.9 °C -0.2 °C 1001.6 hPa WSW 8 km/h 20.9 km/h 46 % 0 mm
12:51 11.1 °C -0.4 °C 1001.6 hPa West 12.9 km/h 32.2 km/h 45 % 0 mm
12:56 11.2 °C 0 °C 1001.6 hPa West 10.5 km/h 27.8 km/h 46 % 0 mm
13:01 11.3 °C -0.2 °C 1001.6 hPa West 11.4 km/h 18.5 km/h 45 % 0 mm
13:06 11.3 °C -0.6 °C 1001.6 hPa WSW 6.8 km/h 22.2 km/h 44 % 0 mm
13:11 11.3 °C -0.2 °C 1001.6 hPa SW 10.8 km/h 20.4 km/h 45 % 0 mm
13:16 11.3 °C -0.2 °C 1001.6 hPa West 6.1 km/h 20.4 km/h 45 % 0 mm
13:21 11.3 °C -0.5 °C 1001.6 hPa WNW 9 km/h 18.5 km/h 44 % 0 mm
13:26 11.4 °C -0.4 °C 1001.6 hPa West 9.7 km/h 18.5 km/h 44 % 0 mm
13:31 11.4 °C -0.4 °C 1001.6 hPa WNW 6.3 km/h 16.1 km/h 44 % 0 mm
13:36 11.5 °C -0.3 °C 1001.6 hPa West 9 km/h 14.8 km/h 44 % 0 mm
13:41 11.6 °C -0.3 °C 1001.9 hPa SW 10.8 km/h 22.2 km/h 44 % 0 mm
13:46 11.6 °C -0.6 °C 1001.9 hPa WSW 7.6 km/h 22.5 km/h 43 % 0 mm
13:51 11.6 °C -0.2 °C 1001.6 hPa WSW 13.5 km/h 22.5 km/h 44 % 0 mm
13:56 11.7 °C -0.5 °C 1001.9 hPa SW 4.3 km/h 13 km/h 43 % 0 mm
14:01 11.7 °C -0.5 °C 1001.9 hPa WNW 12.6 km/h 16.7 km/h 43 % 0 mm
14:06 11.6 °C -0.6 °C 1001.9 hPa SW 7.6 km/h 14.8 km/h 43 % 0 mm
14:11 11.5 °C -0.3 °C 1002.3 hPa WSW 7.7 km/h 20.9 km/h 44 % 0 mm
14:16 11.5 °C -0.3 °C 1002.3 hPa WSW 9.7 km/h 18.5 km/h 44 % 0 mm
14:21 11.4 °C -0.4 °C 1002.6 hPa West 7.6 km/h 22.5 km/h 44 % 0 mm
14:26 11.4 °C -0.4 °C 1002.6 hPa WSW 6.9 km/h 11.3 km/h 44 % 0 mm
14:31 11.3 °C -0.6 °C 1002.6 hPa WSW 13.4 km/h 18.5 km/h 44 % 0 mm
14:36 11.2 °C -0.7 °C 1002.3 hPa WSW 8 km/h 18.5 km/h 44 % 0 mm
14:41 11.1 °C -0.4 °C 1002.6 hPa WSW 10.5 km/h 13 km/h 45 % 0 mm
14:46 11 °C -0.5 °C 1002.3 hPa WNW 14.2 km/h 18.5 km/h 45 % 0 mm
14:51 10.9 °C -0.6 °C 1002.3 hPa West 7.1 km/h 20.4 km/h 45 % 0 mm
14:57 10.7 °C -0.4 °C 1002.6 hPa WNW 6 km/h 14.8 km/h 46 % 0 mm
15:02 10.6 °C -0.6 °C 1002.6 hPa WSW 6.4 km/h 14.8 km/h 46 % 0 mm
15:07 10.4 °C -0.7 °C 1002.6 hPa WSW 8.2 km/h 14.8 km/h 46 % 0 mm
15:12 10.3 °C -0.5 °C 1002.9 hPa WNW 5.1 km/h 9.3 km/h 47 % 0 mm
15:17 10.2 °C -0.7 °C 1002.9 hPa WSW 7.6 km/h 18.5 km/h 47 % 0 mm
15:22 10 °C -0.8 °C 1002.9 hPa WNW 8.5 km/h 20.4 km/h 47 % 0 mm
15:27 9.9 °C -0.6 °C 1002.9 hPa SW 8.7 km/h 18.5 km/h 48 % 0 mm
15:32 9.7 °C -0.6 °C 1002.9 hPa SW 12.2 km/h 18.5 km/h 49 % 0 mm
15:37 9.6 °C -0.7 °C 1002.9 hPa WSW 2.3 km/h 8 km/h 49 % 0 mm
15:42 9.4 °C -0.7 °C 1003.3 hPa SW 2.9 km/h 11.3 km/h 49 % 0 mm
15:47 9.3 °C -0.6 °C 1003.3 hPa West 6.6 km/h 14.8 km/h 50 % 0 mm
15:52 9.2 °C -0.7 °C 1003.6 hPa WSW 11.7 km/h 24.1 km/h 50 % 0 mm
15:57 9.2 °C -0.7 °C 1003.6 hPa WSW 7.6 km/h 18.5 km/h 50 % 0 mm
16:02 9.1 °C -0.6 °C 1003.6 hPa WSW 8.7 km/h 22.2 km/h 51 % 0 mm
16:07 8.9 °C -0.7 °C 1003.6 hPa SSW 8.9 km/h 13 km/h 51 % 0 mm
16:12 8.9 °C -0.4 °C 1003.6 hPa West 8.9 km/h 14.8 km/h 52 % 0 mm
16:17 8.8 °C -0.6 °C 1003.6 hPa NW 8.4 km/h 16.7 km/h 52 % 0 mm
16:22 8.7 °C -0.6 °C 1003.6 hPa WSW 4.5 km/h 17.7 km/h 52 % 0 mm
16:27 8.7 °C -0.7 °C 1003.6 hPa WSW 10.8 km/h 16.7 km/h 52 % 0 mm
16:32 8.6 °C -0.7 °C 1003.6 hPa WSW 5.5 km/h 11.1 km/h 52 % 0 mm
16:37 8.6 °C -0.5 °C 1003.9 hPa West 12.6 km/h 20.4 km/h 53 % 0 mm
16:42 8.6 °C -0.5 °C 1003.9 hPa WSW 6.4 km/h 11.1 km/h 53 % 0 mm
16:47 8.5 °C -0.6 °C 1003.9 hPa WNW 6.6 km/h 16.7 km/h 53 % 0 mm
16:52 8.5 °C -0.6 °C 1004.3 hPa WSW 4.7 km/h 8 km/h 53 % 0 mm
16:58 8.4 °C -0.6 °C 1004.3 hPa WSW 11.1 km/h 11.1 km/h 53 % 0 mm
17:03 8.4 °C -0.7 °C 1004.6 hPa SW 6.1 km/h 16.7 km/h 53 % 0 mm
17:08 8.3 °C -0.4 °C 1004.3 hPa WSW 4 km/h 7.4 km/h 54 % 0 mm
17:13 8.2 °C -0.6 °C 1004.6 hPa West 5.5 km/h 11.3 km/h 54 % 0 mm
17:18 8.2 °C -0.6 °C 1004.6 hPa WSW 9.5 km/h 16.7 km/h 54 % 0 mm
17:23 8.1 °C -0.7 °C 1005 hPa WSW 9.5 km/h 14.8 km/h 54 % 0 mm
17:28 8 °C -0.8 °C 1005 hPa WSW 0.8 km/h 3.7 km/h 54 % 0 mm
17:33 7.9 °C -0.8 °C 1005 hPa West 4.8 km/h 9.3 km/h 54 % 0 mm
17:38 7.9 °C -0.6 °C 1005 hPa West 4.3 km/h 11.3 km/h 55 % 0 mm
17:43 7.8 °C -0.7 °C 1005 hPa West 7.1 km/h 9.7 km/h 55 % 0 mm
17:48 7.8 °C -0.7 °C 1005 hPa WSW 8.4 km/h 18.5 km/h 55 % 0 mm
17:53 7.8 °C -0.7 °C 1005 hPa WSW 8 km/h 16.7 km/h 55 % 0 mm
17:58 7.7 °C -0.8 °C 1005 hPa West 10.3 km/h 16.7 km/h 55 % 0 mm
18:03 7.7 °C -0.6 °C 1005.3 hPa WSW 10 km/h 18.5 km/h 56 % 0 mm
18:08 7.6 °C -0.7 °C 1005.3 hPa WSW 10.8 km/h 18.5 km/h 56 % 0 mm
18:13 7.6 °C -0.7 °C 1005.3 hPa West 4.3 km/h 11.3 km/h 56 % 0 mm
18:18 7.5 °C -0.7 °C 1005.3 hPa WSW 6.3 km/h 13 km/h 56 % 0 mm
18:23 7.4 °C -0.8 °C 1005.6 hPa West 10.8 km/h 16.7 km/h 56 % 0 mm
18:28 7.4 °C -0.6 °C 1005.6 hPa West 9.8 km/h 20.4 km/h 57 % 0 mm
18:33 7.4 °C -0.6 °C 1006 hPa WSW 7.1 km/h 13 km/h 57 % 0 mm
18:38 7.3 °C -0.6 °C 1006 hPa WSW 7.2 km/h 18.5 km/h 57 % 0 mm
18:43 7.3 °C -0.7 °C 1006 hPa West 6.9 km/h 9.7 km/h 57 % 0 mm
18:48 7.2 °C -0.7 °C 1006 hPa SSW 8 km/h 11.3 km/h 57 % 0 mm
18:53 7.2 °C -0.7 °C 1006.3 hPa WNW 7.4 km/h 11.1 km/h 57 % 0 mm
18:59 7.2 °C -0.6 °C 1006.7 hPa West 7.1 km/h 14.8 km/h 58 % 0 mm
19:04 7.2 °C -0.6 °C 1006.3 hPa West 5.1 km/h 13 km/h 58 % 0 mm
19:09 7.2 °C -0.6 °C 1006.3 hPa West 10.1 km/h 12.9 km/h 58 % 0 mm
19:14 7.2 °C -0.6 °C 1006.7 hPa WSW 6 km/h 9.7 km/h 58 % 0 mm
19:19 7.2 °C -0.6 °C 1006.7 hPa West 5.3 km/h 14.8 km/h 58 % 0 mm
19:24 7.1 °C -0.6 °C 1006.7 hPa WSW 10.3 km/h 14.8 km/h 58 % 0 mm
19:29 7.2 °C -0.6 °C 1006.7 hPa WSW 9.2 km/h 18.5 km/h 58 % 0 mm
19:34 7.2 °C -0.6 °C 1006.7 hPa SW 10.9 km/h 18.5 km/h 58 % 0 mm
19:39 7.2 °C -0.6 °C 1006.7 hPa West 14 km/h 18.5 km/h 58 % 0 mm
19:44 7.2 °C -0.6 °C 1007 hPa SW 6.6 km/h 11.3 km/h 58 % 0 mm
19:49 7.1 °C -0.6 °C 1007 hPa West 2.9 km/h 11.1 km/h 58 % 0 mm
19:54 7.1 °C -0.4 °C 1007.3 hPa SW 3.9 km/h 11.1 km/h 59 % 0 mm
19:59 7 °C -0.5 °C 1007.3 hPa WSW 6.4 km/h 11.1 km/h 59 % 0 mm
20:04 6.9 °C -0.5 °C 1007.3 hPa WSW 4.8 km/h 11.1 km/h 59 % 0 mm
20:09 6.9 °C -0.6 °C 1007.3 hPa WSW 7.2 km/h 14.8 km/h 59 % 0 mm
20:14 6.8 °C -0.6 °C 1007.3 hPa WSW 5.1 km/h 11.1 km/h 59 % 0 mm
20:19 6.8 °C -0.4 °C 1007.3 hPa WSW 6.1 km/h 14.8 km/h 60 % 0 mm
20:21 6.8 °C -0.4 °C 1007.3 hPa SW 5.3 km/h 13 km/h 60 % 0 mm
20:26 6.7 °C -0.5 °C 1007.3 hPa SW 7.9 km/h 14.8 km/h 60 % 0 mm
20:31 6.7 °C -0.6 °C 1007.3 hPa SW 9 km/h 11.3 km/h 60 % 0 mm
20:36 6.7 °C -0.6 °C 1007.3 hPa West 5.5 km/h 16.7 km/h 60 % 0 mm
20:41 6.7 °C -0.6 °C 1007.3 hPa WSW 9.3 km/h 18.5 km/h 60 % 0 mm
20:46 6.7 °C -0.6 °C 1007.7 hPa SW 7.6 km/h 13 km/h 60 % 0 mm
20:51 6.7 °C -0.6 °C 1007.7 hPa WSW 8.5 km/h 11.3 km/h 60 % 0 mm
20:56 6.7 °C -0.6 °C 1007.7 hPa SW 6 km/h 18.5 km/h 60 % 0 mm
21:01 6.7 °C -0.6 °C 1007.7 hPa WSW 10.5 km/h 16.7 km/h 60 % 0 mm
21:06 6.7 °C -0.6 °C 1007.7 hPa WSW 6.1 km/h 11.1 km/h 60 % 0 mm
21:11 6.6 °C -0.6 °C 1007.7 hPa SW 3.9 km/h 7.4 km/h 60 % 0 mm
21:16 6.6 °C -0.4 °C 1007.7 hPa SW 4.2 km/h 9.3 km/h 61 % 0 mm
21:21 6.4 °C -0.6 °C 1007.7 hPa SW 2.9 km/h 5.6 km/h 61 % 0 mm
21:26 6.3 °C -0.7 °C 1007.7 hPa SW 3.7 km/h 9.3 km/h 61 % 0 mm
21:31 6.3 °C -0.7 °C 1008 hPa SSW 3.1 km/h 4.8 km/h 61 % 0 mm
21:36 6.1 °C -0.6 °C 1008 hPa SSW 3.7 km/h 6.4 km/h 62 % 0 mm
21:41 6 °C -0.7 °C 1008 hPa SSW 3.5 km/h 5.6 km/h 62 % 0 mm
21:46 5.9 °C -0.8 °C 1008 hPa SW 2.7 km/h 5.6 km/h 62 % 0 mm
21:51 5.7 °C -0.8 °C 1008 hPa SW 3.9 km/h 6.4 km/h 63 % 0 mm
21:56 5.6 °C -0.9 °C 1008.4 hPa SW 2.3 km/h 5.6 km/h 63 % 0 mm
22:01 5.5 °C -1 °C 1008 hPa SW 4.3 km/h 5.6 km/h 63 % 0 mm
22:06 5.4 °C -0.9 °C 1008 hPa SSW 2.9 km/h 5.6 km/h 64 % 0 mm
22:11 5.3 °C -1 °C 1008 hPa SSW 3.2 km/h 6.4 km/h 64 % 0 mm
22:16 5.2 °C -1.1 °C 1008 hPa SSW 3.2 km/h 5.6 km/h 64 % 0 mm
22:22 5.2 °C -1.1 °C 1008 hPa SSW 2.4 km/h 5.6 km/h 64 % 0 mm
22:27 5.1 °C -0.9 °C 1008 hPa SW 2.9 km/h 5.6 km/h 65 % 0 mm
22:32 5 °C -1.1 °C 1008 hPa SSW 4 km/h 5.6 km/h 65 % 0 mm
22:37 4.9 °C -1.1 °C 1008.4 hPa SW 2.3 km/h 5.6 km/h 65 % 0 mm
22:42 4.9 °C -1.2 °C 1008.4 hPa SW 3.9 km/h 5.6 km/h 65 % 0 mm
22:47 4.8 °C -1.2 °C 1008.4 hPa SW 2.9 km/h 5.6 km/h 65 % 0 mm
22:52 4.8 °C -1.1 °C 1008.4 hPa SSW 4.5 km/h 6.4 km/h 66 % 0 mm
22:57 4.7 °C -1.2 °C 1008.7 hPa SSW 4.7 km/h 5.6 km/h 66 % 0 mm
23:02 4.6 °C -1.2 °C 1008.4 hPa SSW 1.8 km/h 5.6 km/h 66 % 0 mm
23:07 4.6 °C -1.1 °C 1008.4 hPa SW 2.1 km/h 3.7 km/h 67 % 0 mm
23:12 4.6 °C -1.1 °C 1008.4 hPa SW 0.5 km/h 3.7 km/h 67 % 0 mm
23:17 4.5 °C -1.1 °C 1008.4 hPa SW 0.3 km/h 1.9 km/h 67 % 0 mm
23:22 4.4 °C -1.2 °C 1008.4 hPa SW 4.3 km/h 7.4 km/h 67 % 0 mm
23:27 4.4 °C -0.9 °C 1008.4 hPa SW 2.7 km/h 5.6 km/h 68 % 0 mm
23:32 4.4 °C -1 °C 1008.4 hPa SW 2.3 km/h 3.7 km/h 68 % 0 mm
23:37 4.4 °C -1 °C 1008.4 hPa SSW 2.4 km/h 3.7 km/h 68 % 0 mm
23:42 4.3 °C -1.1 °C 1008.7 hPa SSW 3.2 km/h 5.6 km/h 68 % 0 mm
23:47 4.3 °C -1.1 °C 1008.7 hPa WSW 2.9 km/h 4.8 km/h 68 % 0 mm
23:52 4.3 °C -1.1 °C 1008.7 hPa SW 3.5 km/h 5.6 km/h 68 % 0 mm
23:57 4.3 °C -1.1 °C 1008.7 hPa SW 1.9 km/h 5.6 km/h 68 % 0 mm
Crab Meadow Weather
Compliments of Weather Underground - 3 mb

Script developed by  Jim McMurry - jmcmurry@mwt.net Adapted for the template by  Wim van der Kuil - Leuven-Template.eu

Cloud Base: The cloud base is the distance from the sea level to the base of the clouds. It is estimated using the current temperature and humidity to indicate an altitude where the air could be cold enough for clouds to form. There may or may not be clouds at that altitude (or at any altitude)